createdAt,value
2022-10-27T00:00:44.888Z,27.67
2022-10-27T00:03:35.068Z,27.69
2022-10-27T00:06:24.450Z,27.79
2022-10-27T00:09:12.983Z,27.92
2022-10-27T00:12:03.249Z,28.00
2022-10-27T00:14:52.338Z,28.02
2022-10-27T00:17:42.344Z,28.14
2022-10-27T00:20:31.461Z,28.28
2022-10-27T00:23:20.824Z,28.39
2022-10-27T00:26:13.045Z,28.50
2022-10-27T00:29:02.222Z,28.59
2022-10-27T00:31:50.831Z,28.66
2022-10-27T00:34:40.175Z,28.71
2022-10-27T00:37:30.680Z,28.80
2022-10-27T00:40:20.363Z,28.82
2022-10-27T00:43:34.233Z,28.93
2022-10-27T00:46:46.969Z,28.89
2022-10-27T00:49:48.093Z,28.98
2022-10-27T00:52:48.992Z,29.01
2022-10-27T00:55:40.973Z,29.06
2022-10-27T00:58:30.337Z,29.11
2022-10-27T01:01:20.598Z,29.10
2022-10-27T01:04:10.090Z,29.17
2022-10-27T01:06:59.429Z,29.21
2022-10-27T01:09:49.466Z,29.25
2022-10-27T01:12:38.776Z,29.29
2022-10-27T01:15:49.525Z,29.33
2022-10-27T01:18:44.251Z,29.39
2022-10-27T01:22:10.261Z,29.41
2022-10-27T01:25:29.530Z,29.51
2022-10-27T01:28:51.919Z,29.60
2022-10-27T01:31:57.859Z,29.64
2022-10-27T01:34:47.854Z,29.73
2022-10-27T01:38:17.167Z,29.90
2022-10-27T01:41:34.262Z,30.02
2022-10-27T01:44:31.187Z,30.07
2022-10-27T01:47:23.193Z,30.18
2022-10-27T01:50:12.184Z,30.16
2022-10-27T01:53:02.521Z,30.26
2022-10-27T01:56:06.548Z,30.27
2022-10-27T01:59:17.680Z,30.35
2022-10-27T02:02:12.239Z,30.36
2022-10-27T02:05:42.146Z,30.47
2022-10-27T02:09:00.183Z,30.44
2022-10-27T02:11:53.497Z,30.58
2022-10-27T02:14:44.439Z,30.62
2022-10-27T02:17:40.127Z,30.73
2022-10-27T02:20:33.560Z,30.78
2022-10-27T02:23:23.784Z,30.87
2022-10-27T02:26:29.427Z,30.96
2022-10-27T02:29:24.682Z,31.10
2022-10-27T02:32:17.765Z,31.20
2022-10-27T02:35:07.495Z,31.30
2022-10-27T02:38:00.105Z,31.30
2022-10-27T02:40:49.415Z,31.38
2022-10-27T02:43:39.305Z,31.43
2022-10-27T02:46:28.197Z,31.51
2022-10-27T02:49:17.826Z,31.57
2022-10-27T02:52:07.177Z,31.67
2022-10-27T02:54:56.119Z,31.77
2022-10-27T02:57:49.638Z,31.79
2022-10-27T03:00:38.622Z,31.88
2022-10-27T03:03:27.716Z,31.96
2022-10-27T03:06:18.164Z,32.03
2022-10-27T03:09:07.913Z,32.10
2022-10-27T03:11:59.459Z,32.13
2022-10-27T03:14:48.901Z,32.18
2022-10-27T03:17:38.189Z,32.17
2022-10-27T03:20:27.090Z,32.18
2022-10-27T03:23:16.338Z,32.18
2022-10-27T03:26:05.753Z,32.17
2022-10-27T03:28:54.949Z,32.17
2022-10-27T03:31:44.193Z,32.16
2022-10-27T03:34:33.590Z,32.18
2022-10-27T03:37:23.475Z,32.19
2022-10-27T03:40:13.761Z,32.19
2022-10-27T03:43:05.526Z,32.15
2022-10-27T03:45:57.299Z,32.18
2022-10-27T03:48:51.697Z,32.18
2022-10-27T03:51:41.055Z,32.20
2022-10-27T03:54:37.051Z,32.28
2022-10-27T03:57:27.265Z,32.31
2022-10-27T04:00:16.683Z,32.31
2022-10-27T04:03:06.393Z,32.35
2022-10-27T04:05:56.549Z,32.40
2022-10-27T04:08:47.270Z,32.43
2022-10-27T04:11:36.423Z,32.49
2022-10-27T04:14:25.101Z,32.47
2022-10-27T04:17:13.925Z,32.53
2022-10-27T04:20:02.943Z,32.61
2022-10-27T04:22:52.381Z,32.67
2022-10-27T04:25:41.548Z,32.70
2022-10-27T04:28:30.939Z,32.77
2022-10-27T04:31:21.561Z,32.92
2022-10-27T04:34:13.292Z,32.98
2022-10-27T04:37:02.824Z,33.03
2022-10-27T04:39:51.759Z,32.94
2022-10-27T04:42:47.720Z,33.04
2022-10-27T04:45:39.719Z,33.03
2022-10-27T04:48:28.767Z,33.01
2022-10-27T04:51:22.304Z,33.10
2022-10-27T04:54:11.615Z,33.16
2022-10-27T04:57:01.372Z,33.21
2022-10-27T04:59:51.004Z,33.32
2022-10-27T05:02:39.857Z,33.37
2022-10-27T05:05:30.256Z,33.38
2022-10-27T05:08:19.901Z,33.37
2022-10-27T05:11:12.594Z,33.40
2022-10-27T05:14:04.568Z,33.55
2022-10-27T05:16:53.914Z,33.52
2022-10-27T05:19:46.033Z,33.57
2022-10-27T05:22:37.439Z,33.62
2022-10-27T05:25:26.297Z,33.67
2022-10-27T05:28:15.457Z,33.66
2022-10-27T05:31:04.646Z,33.82
2022-10-27T05:33:54.364Z,33.81
2022-10-27T05:36:43.955Z,33.90
2022-10-27T05:39:33.223Z,34.00
2022-10-27T05:42:22.133Z,34.09
2022-10-27T05:45:11.370Z,34.16
2022-10-27T05:48:05.750Z,34.22
2022-10-27T05:50:55.589Z,34.29
2022-10-27T05:53:44.325Z,34.38
2022-10-27T05:56:33.972Z,34.39
2022-10-27T05:59:22.868Z,34.43
2022-10-27T06:02:13.341Z,34.40
2022-10-27T06:05:02.780Z,34.38
2022-10-27T06:07:53.465Z,34.33
2022-10-27T06:10:43.357Z,34.26
2022-10-27T06:13:32.852Z,34.22
2022-10-27T06:16:23.044Z,34.16
2022-10-27T06:19:12.757Z,34.15
2022-10-27T06:22:01.732Z,34.11
2022-10-27T06:24:50.831Z,34.03
2022-10-27T06:27:39.544Z,34.03
2022-10-27T06:30:31.550Z,33.96
2022-10-27T06:33:21.795Z,33.92
2022-10-27T06:36:11.608Z,33.90
2022-10-27T06:39:00.970Z,33.91
2022-10-27T06:41:53.108Z,33.86
2022-10-27T06:44:44.816Z,33.83
2022-10-27T06:47:34.262Z,33.84
2022-10-27T06:50:23.480Z,33.84
2022-10-27T06:53:13.245Z,33.83
2022-10-27T06:56:02.031Z,33.81
2022-10-27T06:58:54.072Z,33.81
2022-10-27T07:01:46.423Z,33.78
2022-10-27T07:04:36.243Z,33.76
2022-10-27T07:07:28.518Z,33.78
2022-10-27T07:10:18.495Z,33.73
2022-10-27T07:13:07.730Z,33.76
2022-10-27T07:15:56.680Z,33.73
2022-10-27T07:18:50.536Z,33.73
2022-10-27T07:21:39.748Z,33.72
2022-10-27T07:24:32.129Z,33.69
2022-10-27T07:27:21.739Z,33.64
2022-10-27T07:30:11.306Z,33.67
2022-10-27T07:33:00.393Z,33.64
2022-10-27T07:35:54.173Z,33.61
2022-10-27T07:38:43.737Z,33.59
2022-10-27T07:41:33.069Z,33.62
2022-10-27T07:44:22.564Z,33.61
2022-10-27T07:47:11.631Z,33.60
2022-10-27T07:50:00.460Z,33.57
2022-10-27T07:52:51.603Z,33.56
2022-10-27T07:55:41.397Z,33.52
2022-10-27T07:58:31.470Z,33.51
2022-10-27T08:01:20.953Z,33.47
2022-10-27T08:04:12.985Z,33.44
2022-10-27T08:07:02.928Z,33.43
2022-10-27T08:09:52.114Z,33.38
2022-10-27T08:12:47.929Z,33.35
2022-10-27T08:15:38.521Z,33.33
2022-10-27T08:18:27.712Z,33.33
2022-10-27T08:21:16.339Z,33.27
2022-10-27T08:24:09.986Z,33.26
2022-10-27T08:26:59.446Z,33.26
2022-10-27T08:29:52.652Z,33.21
2022-10-27T08:32:43.317Z,33.20
2022-10-27T08:35:39.034Z,33.20
2022-10-27T08:38:31.171Z,33.17
2022-10-27T08:41:30.333Z,33.14
2022-10-27T08:44:49.730Z,33.13
2022-10-27T08:47:39.590Z,33.12
2022-10-27T08:50:30.726Z,33.03
2022-10-27T08:53:33.264Z,33.04
2022-10-27T08:56:23.137Z,33.04
2022-10-27T08:59:18.395Z,33.02
2022-10-27T09:02:29.169Z,32.94
2022-10-27T09:05:31.346Z,32.94
2022-10-27T09:08:28.119Z,32.91
2022-10-27T09:11:23.628Z,32.90
2022-10-27T09:14:41.976Z,32.85
2022-10-27T09:17:44.704Z,32.85
2022-10-27T09:20:52.585Z,32.81
2022-10-27T09:23:53.605Z,32.76
2022-10-27T09:26:43.968Z,32.72
2022-10-27T09:29:43.414Z,32.69
2022-10-27T09:32:35.109Z,32.68
2022-10-27T09:35:32.184Z,32.66
2022-10-27T09:38:24.573Z,32.59
2022-10-27T09:41:13.319Z,32.60
2022-10-27T09:44:03.125Z,32.54
2022-10-27T09:46:56.446Z,32.52
2022-10-27T09:49:49.246Z,32.48
2022-10-27T09:52:44.447Z,32.47
2022-10-27T09:55:54.669Z,32.44
2022-10-27T09:58:51.473Z,32.36
2022-10-27T10:01:50.920Z,32.34
2022-10-27T10:04:48.395Z,32.31
2022-10-27T10:07:42.007Z,32.24
2022-10-27T10:10:31.709Z,32.23
2022-10-27T10:13:21.686Z,32.17
2022-10-27T10:16:17.139Z,32.16
2022-10-27T10:19:21.536Z,32.12
2022-10-27T10:22:22.364Z,32.11
2022-10-27T10:25:25.728Z,32.08
2022-10-27T10:28:41.064Z,32.00
2022-10-27T10:31:32.212Z,32.03
2022-10-27T10:34:48.834Z,32.05
2022-10-27T10:37:55.969Z,32.05
2022-10-27T10:40:44.601Z,32.00
2022-10-27T10:43:33.822Z,32.01
2022-10-27T10:46:26.681Z,31.95
2022-10-27T10:49:43.248Z,31.94
2022-10-27T10:52:38.490Z,31.94
2022-10-27T10:55:36.442Z,31.95
2022-10-27T10:58:27.962Z,31.92
2022-10-27T11:01:16.828Z,31.91
2022-10-27T11:04:06.930Z,31.90
2022-10-27T11:07:02.137Z,31.87
2022-10-27T11:10:32.470Z,31.93
2022-10-27T11:13:23.419Z,31.96
2022-10-27T11:16:14.002Z,31.94
2022-10-27T11:19:08.602Z,31.90
2022-10-27T11:22:05.737Z,31.87
2022-10-27T11:25:07.169Z,31.86
2022-10-27T11:28:12.291Z,31.83
2022-10-27T11:31:37.218Z,31.81
2022-10-27T11:34:48.522Z,31.78
2022-10-27T11:37:46.564Z,31.78
2022-10-27T11:40:48.801Z,31.78
2022-10-27T11:43:50.574Z,31.75
2022-10-27T11:47:13.245Z,31.72
2022-10-27T11:50:40.694Z,31.69
2022-10-27T11:53:30.557Z,31.63
2022-10-27T11:56:44.343Z,31.64
2022-10-27T12:00:09.452Z,31.62
2022-10-27T12:03:20.450Z,31.70
2022-10-27T12:06:11.937Z,31.62
2022-10-27T12:09:28.966Z,31.82
2022-10-27T12:12:41.546Z,31.91
2022-10-27T12:15:57.048Z,31.93
2022-10-27T12:18:58.228Z,31.96
2022-10-27T12:22:09.018Z,32.03
2022-10-27T12:25:11.159Z,32.01
2022-10-27T12:28:03.386Z,32.01
2022-10-27T12:31:02.414Z,31.99
2022-10-27T12:33:57.036Z,31.93
2022-10-27T12:37:00.784Z,31.96
2022-10-27T12:39:58.888Z,31.95
2022-10-27T12:43:12.230Z,31.95
2022-10-27T12:46:30.251Z,31.96
2022-10-27T12:49:43.286Z,31.96
2022-10-27T12:52:36.108Z,31.91
2022-10-27T12:55:54.912Z,31.91
2022-10-27T12:58:53.276Z,31.90
2022-10-27T13:01:57.128Z,31.88
2022-10-27T13:05:19.571Z,31.90
2022-10-27T13:08:36.165Z,31.93
2022-10-27T13:11:38.482Z,31.89
2022-10-27T13:14:51.596Z,31.94
2022-10-27T13:17:56.940Z,31.90
2022-10-27T13:20:48.466Z,31.88
2022-10-27T13:23:55.321Z,31.92
2022-10-27T13:26:55.655Z,31.93
2022-10-27T13:30:32.279Z,31.93
2022-10-27T13:33:43.817Z,31.91
2022-10-27T13:36:32.824Z,31.89
2022-10-27T13:39:22.357Z,31.92
2022-10-27T13:42:18.306Z,31.92
2022-10-27T13:45:29.354Z,31.91
2022-10-27T13:48:18.362Z,31.88
2022-10-27T13:51:48.923Z,31.91
2022-10-27T13:54:55.278Z,31.86
2022-10-27T13:58:06.783Z,31.89
2022-10-27T14:01:21.822Z,31.86
2022-10-27T14:04:43.274Z,31.87
2022-10-27T14:07:39.708Z,31.83
2022-10-27T14:10:31.621Z,31.81
2022-10-27T14:13:37.418Z,31.81
2022-10-27T14:16:35.475Z,31.80
2022-10-27T14:19:31.442Z,31.78
2022-10-27T14:22:53.875Z,31.80
2022-10-27T14:25:47.873Z,31.75
2022-10-27T14:28:36.995Z,31.74
2022-10-27T14:31:26.500Z,31.70
2022-10-27T14:34:20.974Z,31.69
2022-10-27T14:37:22.005Z,31.68
2022-10-27T14:40:22.146Z,31.71
2022-10-27T14:43:23.042Z,31.68
2022-10-27T14:46:23.534Z,31.72
2022-10-27T14:49:47.251Z,31.65
2022-10-27T14:52:45.882Z,31.67
2022-10-27T14:55:40.161Z,31.60
2022-10-27T14:58:29.731Z,31.54
2022-10-27T15:01:27.628Z,31.55
2022-10-27T15:04:27.279Z,31.57
2022-10-27T15:07:21.108Z,31.56
2022-10-27T15:10:18.478Z,31.55
2022-10-27T15:13:12.389Z,31.52
2022-10-27T15:16:08.747Z,31.51
2022-10-27T15:19:02.203Z,31.50
2022-10-27T15:21:51.687Z,31.49
2022-10-27T15:24:40.455Z,31.47
2022-10-27T15:27:35.404Z,31.44
2022-10-27T15:30:24.163Z,31.45
2022-10-27T15:33:29.431Z,31.42
2022-10-27T15:36:18.497Z,31.38
2022-10-27T15:39:13.675Z,31.39
2022-10-27T15:42:05.638Z,31.35
2022-10-27T15:44:59.031Z,31.32
2022-10-27T15:47:52.188Z,31.32
2022-10-27T15:50:44.187Z,31.28
2022-10-27T15:53:46.262Z,31.25
2022-10-27T15:56:38.029Z,31.25
2022-10-27T15:59:30.049Z,31.24
2022-10-27T16:02:32.282Z,31.22
2022-10-27T16:05:34.162Z,31.23
2022-10-27T16:08:22.774Z,31.21
2022-10-27T16:11:14.474Z,31.16
2022-10-27T16:14:32.959Z,31.13
2022-10-27T16:17:41.268Z,31.14
2022-10-27T16:20:45.358Z,31.12
2022-10-27T16:23:38.884Z,31.08
2022-10-27T16:26:30.840Z,31.08
2022-10-27T16:29:22.965Z,31.05
2022-10-27T16:32:13.833Z,31.06
2022-10-27T16:35:06.071Z,30.98
2022-10-27T16:37:54.811Z,30.94
2022-10-27T16:40:47.669Z,30.96
2022-10-27T16:43:38.189Z,30.89
2022-10-27T16:46:28.573Z,30.90
2022-10-27T16:49:17.423Z,30.88
2022-10-27T16:52:09.869Z,30.87
2022-10-27T16:54:59.724Z,30.82
2022-10-27T16:57:51.555Z,30.79
2022-10-27T17:00:46.630Z,30.76
2022-10-27T17:03:40.695Z,30.73
2022-10-27T17:06:30.102Z,30.74
2022-10-27T17:09:27.326Z,30.72
2022-10-27T17:12:16.066Z,30.66
2022-10-27T17:15:25.809Z,30.63
2022-10-27T17:18:15.512Z,30.64
2022-10-27T17:21:07.734Z,30.65
2022-10-27T17:23:56.528Z,30.57
2022-10-27T17:26:45.600Z,30.58
2022-10-27T17:29:34.457Z,30.55
2022-10-27T17:32:24.406Z,30.53
2022-10-27T17:35:13.126Z,30.47
2022-10-27T17:38:02.878Z,30.48
2022-10-27T17:40:53.398Z,30.44
2022-10-27T17:43:42.615Z,30.40
2022-10-27T17:46:31.675Z,30.41
2022-10-27T17:49:30.593Z,30.40
2022-10-27T17:52:20.240Z,30.34
2022-10-27T17:55:09.932Z,30.32
2022-10-27T17:57:59.627Z,30.32
2022-10-27T18:00:48.810Z,30.29
2022-10-27T18:03:42.320Z,30.29
2022-10-27T18:06:33.096Z,30.25
2022-10-27T18:09:22.805Z,30.23
2022-10-27T18:12:12.402Z,30.22
2022-10-27T18:15:23.797Z,30.20
2022-10-27T18:18:11.212Z,30.20
2022-10-27T18:21:05.730Z,30.16
2022-10-27T18:23:59.970Z,30.15
2022-10-27T18:26:49.240Z,30.13
2022-10-27T18:29:39.767Z,30.09
2022-10-27T18:32:31.141Z,30.11
2022-10-27T18:35:22.337Z,30.10
2022-10-27T18:38:11.476Z,30.09
2022-10-27T18:41:04.431Z,30.05
2022-10-27T18:43:55.365Z,30.02
2022-10-27T18:46:45.111Z,30.00
2022-10-27T18:49:48.060Z,30.00
2022-10-27T18:52:38.544Z,30.01
2022-10-27T18:55:27.335Z,29.98
2022-10-27T18:58:16.343Z,29.96
2022-10-27T19:01:16.040Z,29.97
2022-10-27T19:04:09.815Z,29.92
2022-10-27T19:06:59.363Z,29.92
2022-10-27T19:09:49.177Z,29.90
2022-10-27T19:12:38.069Z,29.90
2022-10-27T19:15:27.802Z,29.84
2022-10-27T19:18:16.982Z,29.84
2022-10-27T19:24:03.299Z,29.82
2022-10-27T19:26:54.325Z,29.80
2022-10-27T19:29:43.110Z,29.81
2022-10-27T19:32:32.819Z,29.78
2022-10-27T19:35:22.146Z,29.74
2022-10-27T19:38:11.701Z,29.74
2022-10-27T19:41:01.345Z,29.73
2022-10-27T19:43:55.694Z,29.71
2022-10-27T19:46:44.845Z,29.68
2022-10-27T19:49:33.909Z,29.70
2022-10-27T19:52:23.190Z,29.71
2022-10-27T19:55:12.396Z,29.65
2022-10-27T19:58:01.718Z,29.60
2022-10-27T20:00:50.644Z,29.58
2022-10-27T20:03:41.356Z,29.59
2022-10-27T20:06:35.659Z,29.58
2022-10-27T20:09:24.992Z,29.61
2022-10-27T20:12:14.090Z,29.59
2022-10-27T20:15:03.088Z,29.61
2022-10-27T20:17:52.709Z,29.58
2022-10-27T20:20:42.271Z,29.55
2022-10-27T20:23:32.424Z,29.54
2022-10-27T20:26:29.033Z,29.54
2022-10-27T20:29:24.134Z,29.47
2022-10-27T20:32:16.305Z,29.45
2022-10-27T20:35:07.103Z,29.45
2022-10-27T20:37:57.416Z,29.42
2022-10-27T20:40:49.202Z,29.45
2022-10-27T20:43:38.542Z,29.45
2022-10-27T20:46:29.627Z,29.41
2022-10-27T20:49:18.469Z,29.39
2022-10-27T20:52:07.846Z,29.35
2022-10-27T20:54:56.897Z,29.33
2022-10-27T20:57:46.376Z,29.32
2022-10-27T21:00:35.328Z,29.32
2022-10-27T21:03:24.908Z,29.33
2022-10-27T21:06:14.103Z,29.30
2022-10-27T21:09:05.774Z,29.28
2022-10-27T21:11:54.790Z,29.28
2022-10-27T21:14:44.518Z,29.25
2022-10-27T21:17:33.974Z,29.18
2022-10-27T21:20:22.756Z,29.19
2022-10-27T21:23:14.655Z,29.14
2022-10-27T21:26:07.610Z,29.18
2022-10-27T21:28:57.901Z,29.16
2022-10-27T21:31:47.568Z,29.13
2022-10-27T21:34:36.984Z,29.17
2022-10-27T21:37:27.212Z,29.16
2022-10-27T21:40:18.751Z,29.12
2022-10-27T21:43:07.752Z,29.11
2022-10-27T21:45:57.855Z,29.16
2022-10-27T21:48:47.076Z,29.15
2022-10-27T21:51:36.310Z,29.14
2022-10-27T21:54:26.337Z,29.14
2022-10-27T21:57:15.328Z,29.16
2022-10-27T22:00:05.119Z,29.12
2022-10-27T22:02:53.371Z,29.13
2022-10-27T22:05:43.865Z,29.10
2022-10-27T22:08:32.857Z,29.10
2022-10-27T22:11:24.943Z,29.12
2022-10-27T22:14:14.995Z,29.10
2022-10-27T22:17:03.699Z,29.11
2022-10-27T22:19:54.215Z,29.08
2022-10-27T22:22:43.388Z,29.08
2022-10-27T22:25:33.624Z,29.08
2022-10-27T22:28:22.500Z,29.11
2022-10-27T22:31:13.737Z,29.09
2022-10-27T22:34:04.098Z,29.11
2022-10-27T22:36:53.799Z,29.08
2022-10-27T22:39:42.764Z,29.12
2022-10-27T22:42:32.249Z,29.12
2022-10-27T22:45:23.520Z,29.10
2022-10-27T22:48:12.352Z,29.13
2022-10-27T22:51:06.764Z,29.14
2022-10-27T22:53:56.874Z,29.16
2022-10-27T22:56:45.863Z,29.19
2022-10-27T22:59:35.222Z,29.17
2022-10-27T23:02:24.923Z,29.16
2022-10-27T23:05:17.368Z,29.15
2022-10-27T23:08:06.592Z,29.17
2022-10-27T23:11:04.712Z,29.17
2022-10-27T23:13:54.394Z,29.23
2022-10-27T23:16:44.918Z,29.30
2022-10-27T23:19:34.070Z,29.33
2022-10-27T23:22:26.180Z,29.31
2022-10-27T23:25:15.749Z,29.39
2022-10-27T23:28:06.157Z,29.43
2022-10-27T23:30:55.327Z,29.51
2022-10-27T23:33:47.606Z,29.55
2022-10-27T23:36:37.110Z,29.59
2022-10-27T23:39:27.791Z,29.59
2022-10-27T23:42:16.988Z,29.64
2022-10-27T23:45:06.274Z,29.66
2022-10-27T23:47:55.521Z,29.65
2022-10-27T23:50:45.294Z,29.64
2022-10-27T23:53:44.463Z,29.72
2022-10-27T23:56:33.189Z,29.70
2022-10-27T23:59:22.981Z,29.71
